Terminal Aerodrome Forecast
Issued by NWS Pittsburgh, PA

Current Version | Previous Version | Graphics & Text | Print | Product List | Glossary On
Versions: 1 2 3 4 5 6 7 8 9 10 11 12 13 14 15 16 17 18 19 20 21 22 23 24 25 26 27 28 29 30 31 32 33
000
FTUS41 KPBZ 261723
TAFPIT
TAF
KPIT 261723Z 2618/2724 27014G24KT P6SM VCTS BKN035CB
      TEMPO 2620/2622 5SM -TSRA SCT035CB
     FM262200 32013G21KT P6SM BKN050
     FM270400 36007KT P6SM BKN030
     FM270900 02006KT P6SM BKN015
     FM271200 03006KT P6SM SCT060=

USA.gov is the U.S. government's official web portal to all federal, state and local government web resources and services.